Time;durP1;ratioP1;P1;durP2;ratioP2;P2;SDS_P1;SDS_P2;PMS_P1;PMS_P2;Temp;Humidity;BMP_temperature;BMP_pressure;BME280_temperature;BME280_humidity;BME280_pressure;Samples;Min_cycle;Max_cycle;Signal;HPM_P1;HPM_P2
2024/01/27 00:02:21;;;;;;;5.13;2.78;;;2.30;99.90;;;;;;4986028;28;20209;-59
2024/01/27 00:04:48;;;;;;;4.60;3.20;;;2.30;99.90;;;;;;4985014;28;20204;-59
2024/01/27 00:07:16;;;;;;;3.17;2.85;;;2.20;99.90;;;;;;5026489;23;20230;-60
2024/01/27 00:09:43;;;;;;;3.92;2.90;;;2.20;99.90;;;;;;5031205;28;20320;-61
2024/01/27 00:12:10;;;;;;;2.65;2.15;;;2.10;99.90;;;;;;5024838;28;20199;-60
2024/01/27 00:14:40;;;;;;;3.05;2.28;;;2.10;99.90;;;;;;5033536;28;20230;-60
2024/01/27 00:17:07;;;;;;;4.53;2.40;;;2.00;99.90;;;;;;5031195;28;20230;-61
2024/01/27 00:19:33;;;;;;;3.33;2.30;;;2.00;99.90;;;;;;5030135;28;20761;-61
2024/01/27 00:22:00;;;;;;;5.05;3.10;;;1.90;99.90;;;;;;5033220;28;20231;-61
2024/01/27 00:24:29;;;;;;;3.90;2.60;;;1.80;99.90;;;;;;5032522;28;20302;-60
2024/01/27 00:26:55;;;;;;;5.25;2.15;;;1.80;99.90;;;;;;5033645;28;20915;-61
2024/01/27 00:29:22;;;;;;;4.88;2.28;;;1.80;99.90;;;;;;5033409;28;20238;-58
2024/01/27 00:31:50;;;;;;;3.35;2.30;;;1.80;99.90;;;;;;5033511;28;20286;-59
2024/01/27 00:34:17;;;;;;;4.30;2.45;;;1.70;99.90;;;;;;5033811;28;20199;-58
2024/01/27 00:36:48;;;;;;;3.50;2.97;;;1.70;99.90;;;;;;5033205;28;20223;-61
2024/01/27 00:39:15;;;;;;;2.92;2.25;;;1.60;99.90;;;;;;5033355;28;20210;-59
2024/01/27 00:41:43;;;;;;;3.13;2.80;;;1.60;99.90;;;;;;5032982;28;20230;-60
2024/01/27 00:44:10;;;;;;;6.60;1.98;;;1.60;99.90;;;;;;5033198;28;20207;-59
2024/01/27 00:46:37;;;;;;;4.10;2.65;;;1.50;99.90;;;;;;5033412;28;20302;-61
2024/01/27 00:49:04;;;;;;;2.85;2.35;;;1.50;99.90;;;;;;5033406;28;20615;-61
2024/01/27 00:51:31;;;;;;;5.60;3.25;;;1.50;99.90;;;;;;5033217;28;20291;-59
2024/01/27 00:53:58;;;;;;;3.50;2.97;;;1.50;99.90;;;;;;5033193;28;20221;-61
2024/01/27 00:56:25;;;;;;;4.15;2.38;;;1.40;99.90;;;;;;5033286;28;20623;-57
2024/01/27 00:58:53;;;;;;;2.90;2.05;;;1.40;99.90;;;;;;5032904;28;20209;-58
2024/01/27 01:01:20;;;;;;;2.88;2.55;;;1.40;99.90;;;;;;5033124;28;20230;-60
2024/01/27 01:03:47;;;;;;;3.13;2.92;;;1.40;99.90;;;;;;5032857;28;20294;-57
2024/01/27 01:06:14;;;;;;;5.82;2.15;;;1.30;99.90;;;;;;5032890;28;20231;-60
2024/01/27 01:08:41;;;;;;;4.78;2.40;;;1.30;99.90;;;;;;5033034;28;20235;-60
2024/01/27 01:11:08;;;;;;;7.30;3.65;;;1.30;99.90;;;;;;5032982;28;20640;-61
2024/01/27 01:13:35;;;;;;;4.07;3.10;;;1.30;99.90;;;;;;5033009;28;20646;-61
2024/01/27 01:16:04;;;;;;;5.65;2.80;;;1.30;99.90;;;;;;5032826;28;20285;-60
2024/01/27 01:18:31;;;;;;;4.13;2.55;;;1.30;99.90;;;;;;5032834;28;20294;-60
2024/01/27 01:20:57;;;;;;;6.07;3.25;;;1.30;99.90;;;;;;5032245;28;20274;-60
2024/01/27 01:23:24;;;;;;;4.50;3.15;;;1.30;99.90;;;;;;5032986;28;20294;-61
2024/01/27 01:25:51;;;;;;;3.42;2.50;;;1.30;99.90;;;;;;5032671;28;20654;-61
2024/01/27 01:28:18;;;;;;;7.57;3.65;;;1.30;99.90;;;;;;5032481;28;20213;-61
2024/01/27 01:30:45;;;;;;;2.40;2.20;;;1.30;99.90;;;;;;5032341;28;20219;-61
2024/01/27 01:33:13;;;;;;;6.15;2.40;;;1.30;99.90;;;;;;5032740;28;20292;-61
2024/01/27 01:35:40;;;;;;;2.97;2.67;;;1.30;99.90;;;;;;5032649;28;20238;-62
2024/01/27 01:38:07;;;;;;;4.28;2.50;;;1.30;99.90;;;;;;5032359;28;20294;-59
2024/01/27 01:40:34;;;;;;;3.35;2.90;;;1.30;99.90;;;;;;5032195;28;20233;-61
2024/01/27 01:43:00;;;;;;;3.03;2.17;;;1.20;99.90;;;;;;5032359;28;20211;-61
2024/01/27 01:45:27;;;;;;;3.50;2.95;;;1.30;99.90;;;;;;5032585;28;20217;-61
2024/01/27 01:47:54;;;;;;;5.82;2.67;;;1.20;99.90;;;;;;5032091;28;20313;-61
2024/01/27 01:50:23;;;;;;;2.83;2.05;;;1.20;99.90;;;;;;5031588;28;20206;-58
2024/01/27 01:52:52;;;;;;;3.15;2.25;;;1.20;99.90;;;;;;5032299;28;20205;-61
2024/01/27 01:55:19;;;;;;;3.22;1.92;;;1.20;99.90;;;;;;5031667;28;20203;-59
2024/01/27 01:57:48;;;;;;;7.43;2.10;;;1.20;99.90;;;;;;5031272;28;20313;-60
2024/01/27 02:00:16;;;;;;;6.43;2.65;;;1.20;99.90;;;;;;5025822;28;20214;-60
2024/01/27 02:02:44;;;;;;;5.00;2.60;;;1.20;99.90;;;;;;5023030;28;20215;-59
2024/01/27 02:05:12;;;;;;;2.60;2.40;;;1.20;99.90;;;;;;5012920;28;20678;-59
2024/01/27 02:07:40;;;;;;;4.63;2.55;;;1.10;99.90;;;;;;5012715;28;20290;-60
2024/01/27 02:10:14;;;;;;;5.53;3.38;;;1.10;99.90;;;;;;5028457;28;20210;-59
2024/01/27 02:12:40;;;;;;;4.13;2.22;;;1.20;99.90;;;;;;5015641;28;20230;-60
2024/01/27 02:15:11;;;;;;;2.50;2.30;;;1.20;99.90;;;;;;5031946;28;20265;-59
2024/01/27 02:17:38;;;;;;;3.50;2.75;;;1.10;99.90;;;;;;5032316;28;20219;-60
2024/01/27 02:20:06;;;;;;;4.47;2.60;;;1.10;99.90;;;;;;5032239;28;20302;-60
2024/01/27 02:22:33;;;;;;;11.60;2.78;;;1.10;99.90;;;;;;5032281;28;20250;-61
2024/01/27 02:25:01;;;;;;;5.43;3.22;;;1.10;99.90;;;;;;5031710;28;20297;-61
2024/01/27 02:27:28;;;;;;;9.30;2.65;;;1.10;99.90;;;;;;5031081;28;20313;-61
2024/01/27 02:29:55;;;;;;;4.88;2.85;;;1.10;99.90;;;;;;5031299;28;20211;-61
2024/01/27 02:32:22;;;;;;;5.97;2.83;;;1.10;99.90;;;;;;5032025;28;20664;-61
2024/01/27 02:34:49;;;;;;;5.65;3.05;;;1.10;99.90;;;;;;5031734;28;20207;-58
2024/01/27 02:37:15;;;;;;;2.30;2.10;;;1.00;99.90;;;;;;5032019;28;20314;-61
2024/01/27 02:39:42;;;;;;;7.75;4.05;;;1.10;99.90;;;;;;5032038;28;20301;-61
2024/01/27 02:42:10;;;;;;;3.05;2.80;;;1.00;99.90;;;;;;5031498;28;20764;-61
2024/01/27 02:44:37;;;;;;;5.78;2.70;;;1.00;99.90;;;;;;5031873;28;20211;-61
2024/01/27 02:47:04;;;;;;;8.57;3.80;;;0.90;99.90;;;;;;5031829;28;20230;-59
2024/01/27 02:49:31;;;;;;;7.53;3.00;;;1.00;99.90;;;;;;5031723;28;20294;-60
2024/01/27 02:51:58;;;;;;;7.05;3.30;;;0.90;99.90;;;;;;5031721;28;20290;-61
2024/01/27 02:54:25;;;;;;;4.95;2.67;;;0.90;99.90;;;;;;5031724;28;20704;-61
2024/01/27 02:56:51;;;;;;;3.85;2.88;;;0.90;99.90;;;;;;5031568;28;20245;-61
2024/01/27 02:59:20;;;;;;;3.90;2.78;;;0.90;99.90;;;;;;5031844;28;20213;-60
2024/01/27 03:01:46;;;;;;;6.57;2.40;;;0.90;99.90;;;;;;5030675;28;20321;-59
2024/01/27 03:04:13;;;;;;;6.78;3.42;;;0.90;99.90;;;;;;5031923;28;20289;-59
2024/01/27 03:06:40;;;;;;;4.22;3.05;;;0.80;99.90;;;;;;5031348;28;20235;-60
2024/01/27 03:09:07;;;;;;;4.05;2.35;;;0.80;99.90;;;;;;5031653;28;20217;-61
2024/01/27 03:11:34;;;;;;;3.55;3.08;;;0.80;99.90;;;;;;5031443;28;20245;-59
2024/01/27 03:14:01;;;;;;;3.95;3.08;;;0.80;99.90;;;;;;5031662;28;20289;-61
2024/01/27 03:16:29;;;;;;;3.83;3.10;;;0.70;99.90;;;;;;5031585;28;20235;-61
2024/01/27 03:18:56;;;;;;;4.78;2.88;;;0.70;99.90;;;;;;5031556;28;20378;-59
2024/01/27 03:21:23;;;;;;;3.97;2.63;;;0.70;99.90;;;;;;5030915;28;20796;-60
2024/01/27 03:23:49;;;;;;;6.20;2.50;;;0.70;99.90;;;;;;5031569;28;20297;-61
2024/01/27 03:26:16;;;;;;;8.32;3.13;;;0.70;99.90;;;;;;5031280;28;20843;-60
2024/01/27 03:28:42;;;;;;;4.38;3.05;;;0.70;99.90;;;;;;5031362;28;20210;-61
2024/01/27 03:31:09;;;;;;;2.57;2.40;;;0.70;99.90;;;;;;5031390;28;20281;-61
2024/01/27 03:33:37;;;;;;;6.78;3.22;;;0.70;99.90;;;;;;5031658;28;20536;-61
2024/01/27 03:36:09;;;;;;;6.38;2.55;;;0.60;99.90;;;;;;5031240;28;20222;-58
2024/01/27 03:38:37;;;;;;;4.75;2.80;;;0.60;99.90;;;;;;5031341;28;20217;-61
2024/01/27 03:41:04;;;;;;;3.45;2.95;;;0.60;99.90;;;;;;5031185;28;20725;-62
2024/01/27 03:43:31;;;;;;;5.10;3.13;;;0.60;99.90;;;;;;5031324;28;20295;-62
2024/01/27 03:45:57;;;;;;;5.68;2.75;;;0.60;99.90;;;;;;5031268;28;20668;-61
2024/01/27 03:48:25;;;;;;;6.18;3.00;;;0.50;99.90;;;;;;5031238;28;20211;-61
2024/01/27 03:50:53;;;;;;;5.95;2.75;;;0.50;99.90;;;;;;5030620;28;20208;-62
2024/01/27 03:53:20;;;;;;;5.38;3.13;;;0.50;99.90;;;;;;5031388;28;20301;-61
2024/01/27 03:55:47;;;;;;;4.10;2.67;;;0.50;99.90;;;;;;5031192;28;20644;-60
2024/01/27 03:58:13;;;;;;;5.72;2.88;;;0.50;99.90;;;;;;5030959;28;20298;-61
2024/01/27 04:00:40;;;;;;;2.95;2.05;;;0.40;99.90;;;;;;5030906;28;20627;-61
2024/01/27 04:03:09;;;;;;;4.00;2.15;;;0.40;99.90;;;;;;5031259;28;20233;-61
2024/01/27 04:05:36;;;;;;;4.70;2.20;;;0.40;99.90;;;;;;5031074;28;20242;-61
2024/01/27 04:08:06;;;;;;;2.05;1.95;;;0.40;99.90;;;;;;5031052;28;20233;-62
2024/01/27 04:10:34;;;;;;;8.00;3.20;;;0.40;99.90;;;;;;5030798;28;20203;-61
2024/01/27 04:13:01;;;;;;;7.72;3.63;;;0.30;99.90;;;;;;5033408;28;20214;-61
2024/01/27 04:15:27;;;;;;;4.50;2.20;;;0.30;99.90;;;;;;5034634;28;20697;-61
2024/01/27 04:17:55;;;;;;;4.25;2.97;;;0.30;99.90;;;;;;5034389;28;20310;-61
2024/01/27 04:20:22;;;;;;;4.20;2.65;;;0.30;99.90;;;;;;5034633;28;20207;-61
2024/01/27 04:22:49;;;;;;;7.05;2.55;;;0.30;99.90;;;;;;5034557;28;20321;-59
2024/01/27 04:25:17;;;;;;;3.70;2.80;;;0.30;99.90;;;;;;5034575;28;20213;-62
2024/01/27 04:27:44;;;;;;;6.78;3.72;;;0.20;99.90;;;;;;5034405;28;20238;-61
2024/01/27 04:30:12;;;;;;;5.25;3.10;;;0.20;99.90;;;;;;5034478;28;20647;-60
2024/01/27 04:32:39;;;;;;;5.70;2.22;;;0.20;99.90;;;;;;5034510;28;20199;-61
2024/01/27 04:35:10;;;;;;;3.47;3.15;;;0.20;99.90;;;;;;5034575;28;20567;-61
2024/01/27 04:37:37;;;;;;;5.32;2.80;;;0.20;99.90;;;;;;5034492;28;20237;-61
2024/01/27 04:40:05;;;;;;;3.90;3.38;;;0.20;99.90;;;;;;5034215;28;20299;-59
2024/01/27 04:42:34;;;;;;;3.17;2.97;;;0.20;99.90;;;;;;5034151;28;20265;-61
2024/01/27 04:45:00;;;;;;;2.60;2.00;;;0.10;99.90;;;;;;5033897;28;20697;-61
2024/01/27 04:47:27;;;;;;;8.75;2.40;;;0.10;99.90;;;;;;5034320;28;20337;-60
2024/01/27 04:49:55;;;;;;;4.85;2.65;;;0.10;99.90;;;;;;5034025;28;20213;-61
2024/01/27 04:52:22;;;;;;;5.80;2.50;;;0.10;99.90;;;;;;5033858;28;20266;-61
2024/01/27 04:54:48;;;;;;;2.88;2.67;;;0.10;99.90;;;;;;5033972;28;20207;-61
2024/01/27 04:57:15;;;;;;;3.10;2.80;;;0.00;99.90;;;;;;5033896;28;20232;-61
2024/01/27 04:59:44;;;;;;;8.38;3.45;;;0.00;99.90;;;;;;5032806;28;20293;-61
2024/01/27 05:02:11;;;;;;;7.45;2.90;;;0.00;99.90;;;;;;5033539;28;20238;-61
2024/01/27 05:04:38;;;;;;;4.90;3.17;;;0.00;99.90;;;;;;5033732;28;20306;-61
2024/01/27 05:07:05;;;;;;;6.68;2.75;;;0.00;99.90;;;;;;5033561;28;20237;-61
2024/01/27 05:09:34;;;;;;;2.75;2.40;;;0.00;99.90;;;;;;5033750;28;20211;-61
2024/01/27 05:12:01;;;;;;;2.42;2.22;;;0.00;99.90;;;;;;5033517;28;20199;-60
2024/01/27 05:14:28;;;;;;;3.08;2.75;;;0.00;99.90;;;;;;5033584;28;20673;-61
2024/01/27 05:16:56;;;;;;;3.08;2.88;;;0.00;99.90;;;;;;5033358;28;20318;-61
2024/01/27 05:19:23;;;;;;;4.30;3.22;;;0.00;99.90;;;;;;5033708;28;20209;-61
2024/01/27 05:21:50;;;;;;;3.28;3.05;;;-0.10;99.90;;;;;;5033335;28;20227;-61
2024/01/27 05:24:17;;;;;;;3.58;2.70;;;-0.10;99.90;;;;;;5032675;28;20209;-59
2024/01/27 05:26:44;;;;;;;5.45;4.25;;;-0.10;99.90;;;;;;5033402;28;20233;-61
2024/01/27 05:29:10;;;;;;;3.85;3.00;;;-0.10;99.90;;;;;;5033259;28;20293;-59
2024/01/27 05:31:37;;;;;;;3.10;2.50;;;-0.10;99.90;;;;;;5033008;28;20394;-58
2024/01/27 05:34:05;;;;;;;3.25;2.20;;;-0.10;99.90;;;;;;5033533;28;20293;-61
2024/01/27 05:36:32;;;;;;;6.22;3.05;;;-0.10;99.90;;;;;;5033268;28;20227;-60
2024/01/27 05:38:59;;;;;;;6.68;4.15;;;-0.20;99.90;;;;;;5033008;28;20306;-60
2024/01/27 05:41:29;;;;;;;5.90;3.05;;;-0.10;99.90;;;;;;5032918;28;20207;-61
2024/01/27 05:43:57;;;;;;;4.38;2.80;;;-0.20;99.90;;;;;;5032971;28;20233;-59
2024/01/27 05:46:25;;;;;;;4.13;2.42;;;-0.20;99.90;;;;;;5033127;28;20227;-61
2024/01/27 05:48:53;;;;;;;2.30;2.10;;;-0.20;99.90;;;;;;5033065;28;20294;-61
2024/01/27 05:51:23;;;;;;;5.57;3.05;;;-0.30;99.90;;;;;;5032856;28;20305;-61
2024/01/27 05:53:50;;;;;;;6.78;3.40;;;-0.30;99.90;;;;;;5032978;28;20590;-61
2024/01/27 05:56:17;;;;;;;3.30;2.92;;;-0.30;99.90;;;;;;5032811;28;20672;-61
2024/01/27 05:58:44;;;;;;;3.55;3.22;;;-0.30;99.90;;;;;;5032577;28;20210;-61
2024/01/27 06:01:11;;;;;;;5.47;3.65;;;-0.30;99.90;;;;;;5032782;28;20760;-61
2024/01/27 06:03:38;;;;;;;3.92;2.83;;;-0.30;99.90;;;;;;5032658;28;20773;-61
2024/01/27 06:06:05;;;;;;;8.40;3.67;;;-0.40;99.90;;;;;;5032528;28;20302;-61
2024/01/27 06:08:33;;;;;;;3.10;2.80;;;-0.40;99.90;;;;;;5036759;22;20335;-62
2024/01/27 06:11:00;;;;;;;3.95;3.65;;;-0.40;99.90;;;;;;5012671;28;20290;-63
2024/01/27 06:13:27;;;;;;;11.40;2.95;;;-0.40;99.90;;;;;;5012612;28;20644;-62
2024/01/27 06:15:53;;;;;;;7.13;3.78;;;-0.40;99.90;;;;;;5012598;28;20675;-60
2024/01/27 06:18:20;;;;;;;3.90;3.15;;;-0.40;99.90;;;;;;5012627;28;20801;-62
2024/01/27 06:20:47;;;;;;;6.25;3.00;;;-0.40;99.90;;;;;;5012348;28;20303;-60
2024/01/27 06:23:14;;;;;;;3.65;3.25;;;-0.50;99.90;;;;;;5012069;28;20224;-61
2024/01/27 06:25:43;;;;;;;8.10;4.72;;;-0.50;99.90;;;;;;5009600;28;20206;-62
2024/01/27 06:28:10;;;;;;;8.40;3.60;;;-0.50;99.90;;;;;;5012328;28;20817;-62
2024/01/27 06:30:37;;;;;;;2.63;2.42;;;-0.50;99.90;;;;;;5012342;28;20298;-62
2024/01/27 06:33:04;;;;;;;8.18;3.88;;;-0.50;99.90;;;;;;5012456;28;20287;-63
2024/01/27 06:35:31;;;;;;;5.00;3.55;;;-0.50;99.90;;;;;;5012074;28;20200;-63
2024/01/27 06:37:58;;;;;;;2.88;2.63;;;-0.50;99.90;;;;;;5012684;28;20314;-62
2024/01/27 06:40:25;;;;;;;3.95;3.67;;;-0.50;99.90;;;;;;5012349;28;20625;-63
2024/01/27 06:42:53;;;;;;;4.07;3.67;;;-0.50;99.90;;;;;;5012380;28;20234;-63
2024/01/27 06:45:20;;;;;;;4.95;2.88;;;-0.50;99.90;;;;;;5012497;28;20586;-62
2024/01/27 06:47:47;;;;;;;7.18;3.78;;;-0.50;99.90;;;;;;5012172;28;20315;-63
2024/01/27 06:50:15;;;;;;;6.50;3.50;;;-0.50;99.90;;;;;;5011642;28;20218;-63
2024/01/27 06:52:41;;;;;;;5.88;3.33;;;-0.50;99.90;;;;;;5012122;28;20208;-63
2024/01/27 06:55:10;;;;;;;4.30;3.90;;;-0.50;99.90;;;;;;5012200;28;20212;-62
2024/01/27 06:57:37;;;;;;;4.47;4.18;;;-0.60;99.90;;;;;;5012162;28;20243;-63
2024/01/27 07:00:07;;;;;;;6.78;3.97;;;-0.60;99.90;;;;;;5011929;28;20215;-63
2024/01/27 07:02:34;;;;;;;4.82;4.15;;;-0.60;99.90;;;;;;5008898;28;20271;-63
2024/01/27 07:05:01;;;;;;;5.28;2.97;;;-0.60;99.90;;;;;;4993345;28;20287;-62
2024/01/27 07:07:29;;;;;;;11.98;4.10;;;-0.60;99.90;;;;;;5009189;28;20733;-61
2024/01/27 07:09:56;;;;;;;6.10;4.07;;;-0.50;99.90;;;;;;5011685;28;20295;-63
2024/01/27 07:12:23;;;;;;;8.25;3.45;;;-0.50;99.90;;;;;;5011535;28;20214;-63
2024/01/27 07:14:51;;;;;;;7.35;3.45;;;-0.50;99.90;;;;;;5011452;28;20207;-63
2024/01/27 07:17:19;;;;;;;7.53;3.85;;;-0.50;99.90;;;;;;4992981;28;20231;-63
2024/01/27 07:19:46;;;;;;;7.57;4.15;;;-0.50;99.90;;;;;;5005668;28;20303;-61
2024/01/27 07:22:13;;;;;;;5.15;3.50;;;-0.50;99.90;;;;;;5011139;28;20706;-62
2024/01/27 07:24:40;;;;;;;11.00;4.25;;;-0.50;99.90;;;;;;5011683;28;20207;-63
2024/01/27 07:27:06;;;;;;;5.80;3.38;;;-0.50;99.90;;;;;;5007781;28;20310;-63
2024/01/27 07:29:33;;;;;;;4.70;3.60;;;-0.50;99.90;;;;;;4998994;28;20734;-63
2024/01/27 07:32:00;;;;;;;4.93;3.38;;;-0.50;99.90;;;;;;5010571;28;20304;-63
2024/01/27 07:34:28;;;;;;;9.75;4.70;;;-0.40;99.90;;;;;;5011616;28;20230;-63
2024/01/27 07:36:55;;;;;;;10.15;4.65;;;-0.40;99.90;;;;;;5011138;28;20797;-63
2024/01/27 07:39:22;;;;;;;6.10;3.83;;;-0.40;99.90;;;;;;5011847;28;20298;-63
2024/01/27 07:41:49;;;;;;;7.13;3.47;;;-0.40;99.90;;;;;;5011507;28;20303;-63
2024/01/27 07:44:16;;;;;;;5.03;3.42;;;-0.40;99.90;;;;;;5011564;28;20232;-63
2024/01/27 07:46:43;;;;;;;6.10;2.53;;;-0.40;99.90;;;;;;5011824;28;20422;-63
2024/01/27 07:49:12;;;;;;;7.07;4.00;;;-0.40;99.90;;;;;;5015516;28;20231;-63
2024/01/27 07:51:40;;;;;;;4.88;4.57;;;-0.40;99.90;;;;;;5015379;28;20236;-63
2024/01/27 07:54:07;;;;;;;3.85;3.60;;;-0.40;99.90;;;;;;5015351;28;20210;-63
2024/01/27 07:56:34;;;;;;;3.95;3.05;;;-0.40;99.90;;;;;;5014197;28;20307;-63
2024/01/27 07:59:01;;;;;;;3.10;2.80;;;-0.30;99.90;;;;;;5014867;28;20203;-63
2024/01/27 08:01:28;;;;;;;8.38;3.33;;;-0.30;99.90;;;;;;5015232;28;20299;-63
2024/01/27 08:03:54;;;;;;;5.80;4.50;;;-0.30;99.90;;;;;;5015253;28;20227;-62
2024/01/27 08:06:28;;;;;;;5.88;4.32;;;-0.30;99.90;;;;;;5015037;28;20210;-62
2024/01/27 08:08:56;;;;;;;7.25;4.90;;;-0.30;99.90;;;;;;5015074;28;20295;-63
2024/01/27 08:11:24;;;;;;;4.43;3.60;;;-0.30;99.90;;;;;;5014743;28;20207;-63
2024/01/27 08:13:51;;;;;;;3.80;3.50;;;-0.30;99.90;;;;;;5014988;28;20263;-63
2024/01/27 08:16:18;;;;;;;8.90;3.55;;;-0.30;99.90;;;;;;5015016;28;20262;-63
2024/01/27 08:18:45;;;;;;;7.43;5.28;;;-0.30;99.90;;;;;;5014616;28;20218;-63
2024/01/27 08:21:12;;;;;;;7.25;4.05;;;-0.20;99.90;;;;;;5014574;28;20294;-63
2024/01/27 08:23:39;;;;;;;7.10;4.53;;;-0.20;99.90;;;;;;5012601;28;20220;-63
2024/01/27 08:26:07;;;;;;;9.27;3.35;;;-0.20;99.90;;;;;;5010217;28;20200;-63
2024/01/27 08:28:34;;;;;;;5.28;3.70;;;-0.20;99.90;;;;;;5014180;28;20234;-63
2024/01/27 08:31:01;;;;;;;5.50;3.50;;;-0.20;99.90;;;;;;5014391;28;20302;-63
2024/01/27 08:33:28;;;;;;;4.90;4.60;;;-0.10;99.90;;;;;;5014355;28;20211;-63
2024/01/27 08:35:55;;;;;;;5.85;3.65;;;-0.10;99.90;;;;;;5014423;28;20211;-64
2024/01/27 08:38:22;;;;;;;5.68;4.47;;;-0.10;99.90;;;;;;5013898;28;20232;-63
2024/01/27 08:40:49;;;;;;;3.90;3.20;;;0.00;99.90;;;;;;5014014;28;21017;-64
2024/01/27 08:43:17;;;;;;;3.67;3.38;;;0.00;99.90;;;;;;5013917;28;20237;-63
2024/01/27 08:45:43;;;;;;;4.63;3.47;;;0.00;99.90;;;;;;5014210;28;20306;-63
2024/01/27 08:48:11;;;;;;;9.07;4.07;;;0.10;99.90;;;;;;5013852;28;20319;-64
2024/01/27 08:50:38;;;;;;;5.45;3.85;;;0.10;99.90;;;;;;5013876;28;20450;-64
2024/01/27 08:53:05;;;;;;;6.55;4.00;;;0.10;99.90;;;;;;5013908;28;20298;-63
2024/01/27 08:55:32;;;;;;;7.20;4.90;;;0.20;99.90;;;;;;5014218;28;20295;-63
2024/01/27 08:57:58;;;;;;;7.25;5.00;;;0.20;99.90;;;;;;5013860;28;20278;-63
2024/01/27 09:00:27;;;;;;;6.38;4.68;;;0.20;99.90;;;;;;5013804;28;20299;-64
2024/01/27 09:02:54;;;;;;;7.82;6.95;;;0.30;99.90;;;;;;5013697;28;20224;-64
2024/01/27 09:05:20;;;;;;;12.55;6.75;;;0.30;99.90;;;;;;5013741;28;20207;-64
2024/01/27 09:07:47;;;;;;;9.75;6.13;;;0.30;99.90;;;;;;5013113;28;20239;-64
2024/01/27 09:10:15;;;;;;;7.85;6.32;;;0.40;99.90;;;;;;5012691;28;20294;-63
2024/01/27 09:12:42;;;;;;;6.53;5.28;;;0.40;99.90;;;;;;5012958;28;20207;-64
2024/01/27 09:15:09;;;;;;;6.32;5.13;;;0.40;99.90;;;;;;5013432;28;20300;-63
2024/01/27 09:17:38;;;;;;;11.38;5.68;;;0.40;99.90;;;;;;5013508;28;20231;-64
2024/01/27 09:20:05;;;;;;;11.90;5.78;;;0.40;99.90;;;;;;5013278;28;20221;-64
2024/01/27 09:22:32;;;;;;;5.03;4.63;;;0.50;99.90;;;;;;5013256;28;20211;-63
2024/01/27 09:24:59;;;;;;;9.40;5.40;;;0.50;99.90;;;;;;5013429;28;20298;-64
2024/01/27 09:27:26;;;;;;;8.25;5.10;;;0.50;99.90;;;;;;5013395;28;20672;-63
2024/01/27 09:29:53;;;;;;;6.57;4.97;;;0.60;99.90;;;;;;5012990;28;20211;-64
2024/01/27 09:32:20;;;;;;;8.05;5.07;;;0.60;99.90;;;;;;5012991;28;20302;-64
2024/01/27 09:34:48;;;;;;;5.03;3.90;;;0.60;99.90;;;;;;5012996;28;20328;-64
2024/01/27 09:37:15;;;;;;;7.85;6.03;;;0.60;99.90;;;;;;5013114;28;20318;-64
2024/01/27 09:39:42;;;;;;;5.85;5.32;;;0.70;99.90;;;;;;5012780;28;20753;-64
2024/01/27 09:42:13;;;;;;;8.88;5.35;;;0.70;99.90;;;;;;5013119;28;20346;-64
2024/01/27 09:44:42;;;;;;;7.93;5.13;;;0.80;99.90;;;;;;5013148;28;20334;-63
2024/01/27 09:47:09;;;;;;;6.20;4.97;;;0.80;99.90;;;;;;5012770;28;20306;-63
2024/01/27 09:49:38;;;;;;;6.75;4.78;;;0.90;99.90;;;;;;5012832;28;20212;-64
2024/01/27 09:52:08;;;;;;;6.55;4.40;;;0.90;99.90;;;;;;5012972;28;20299;-64
2024/01/27 09:54:35;;;;;;;10.70;3.42;;;1.00;99.90;;;;;;5002460;28;20254;-64
2024/01/27 09:57:02;;;;;;;7.00;3.55;;;1.00;99.90;;;;;;5011668;28;20283;-64
2024/01/27 09:59:30;;;;;;;12.85;5.20;;;1.10;99.90;;;;;;5006179;28;20284;-64
2024/01/27 10:01:58;;;;;;;9.07;5.57;;;1.10;99.90;;;;;;5009206;28;20207;-64
2024/01/27 10:04:26;;;;;;;7.03;4.13;;;1.20;99.90;;;;;;5012574;28;20334;-63
2024/01/27 10:06:53;;;;;;;4.13;3.83;;;1.20;99.90;;;;;;4994675;28;20846;-64
2024/01/27 10:09:22;;;;;;;9.07;4.28;;;1.30;99.90;;;;;;5009279;28;20210;-64
2024/01/27 10:11:49;;;;;;;8.57;4.45;;;1.30;99.90;;;;;;5011341;28;20659;-64
2024/01/27 10:14:16;;;;;;;11.00;4.75;;;1.40;99.90;;;;;;4993718;28;20205;-64
2024/01/27 10:16:43;;;;;;;9.70;5.50;;;1.50;99.90;;;;;;5012090;28;20315;-64
2024/01/27 10:19:17;;;;;;;10.10;5.40;;;1.50;99.90;;;;;;4995853;28;20672;-64
2024/01/27 10:21:44;;;;;;;8.43;4.35;;;1.60;99.90;;;;;;5012366;28;20204;-64
2024/01/27 10:24:11;;;;;;;14.85;4.53;;;1.80;99.90;;;;;;5005378;28;20313;-64
2024/01/27 10:26:39;;;;;;;8.15;4.20;;;2.00;99.90;;;;;;5004887;28;20290;-64
2024/01/27 10:29:06;;;;;;;8.85;5.10;;;2.30;99.90;;;;;;5008511;28;20658;-63
2024/01/27 10:31:35;;;;;;;12.13;6.10;;;2.50;99.90;;;;;;4995953;28;20288;-63
2024/01/27 10:34:04;;;;;;;15.55;8.98;;;2.80;99.90;;;;;;5009542;28;21308;-63
2024/01/27 10:36:40;;;;;;;14.27;5.72;;;3.00;99.90;;;;;;4996446;28;20211;-63
2024/01/27 10:39:20;;;;;;;8.90;4.63;;;3.30;99.90;;;;;;5012049;28;20207;-64
2024/01/27 10:41:49;;;;;;;6.60;4.43;;;3.50;99.90;;;;;;4999658;28;20214;-62
2024/01/27 10:44:17;;;;;;;8.10;4.30;;;3.70;99.90;;;;;;5004014;28;20305;-63
2024/01/27 10:46:46;;;;;;;7.38;4.15;;;4.00;99.90;;;;;;5011039;28;20227;-63
2024/01/27 10:49:14;;;;;;;14.63;3.88;;;4.20;99.90;;;;;;4998961;28;20218;-64
2024/01/27 10:51:45;;;;;;;5.30;3.50;;;4.40;99.90;;;;;;5010891;28;20214;-63
2024/01/27 10:54:19;;;;;;;4.35;3.30;;;4.60;99.90;;;;;;4999677;28;20235;-64
2024/01/27 10:56:48;;;;;;;8.68;3.83;;;4.80;99.90;;;;;;5011889;28;20227;-63
2024/01/27 10:59:16;;;;;;;6.28;3.88;;;5.10;99.90;;;;;;5011729;28;20730;-63
2024/01/27 11:01:44;;;;;;;8.80;4.80;;;5.40;99.90;;;;;;5011766;28;20207;-63
2024/01/27 11:04:14;;;;;;;8.38;3.58;;;5.70;99.90;;;;;;5002936;28;20603;-64
2024/01/27 11:06:43;;;;;;;14.30;5.68;;;6.00;99.90;;;;;;5007927;28;20250;-63
2024/01/27 11:09:12;;;;;;;7.32;3.42;;;6.30;99.90;;;;;;4996976;28;20208;-63
2024/01/27 11:11:41;;;;;;;8.13;4.35;;;6.50;99.90;;;;;;5010043;28;20232;-63
2024/01/27 11:14:10;;;;;;;3.72;3.42;;;6.80;99.90;;;;;;5010557;28;20283;-64
2024/01/27 11:16:43;;;;;;;3.85;3.50;;;7.00;99.90;;;;;;5009058;28;20729;-64
2024/01/27 11:19:10;;;;;;;4.50;2.92;;;7.20;99.90;;;;;;5003069;28;20713;-64
2024/01/27 11:21:37;;;;;;;4.60;3.08;;;7.40;99.90;;;;;;5000785;28;20205;-63
2024/01/27 11:24:14;;;;;;;5.43;3.37;;;7.50;99.90;;;;;;5004404;28;20315;-64
2024/01/27 11:26:41;;;;;;;5.78;3.13;;;7.60;99.90;;;;;;5010732;28;20560;-63
2024/01/27 11:29:19;;;;;;;7.28;3.13;;;7.70;99.90;;;;;;5015092;28;20585;-63
2024/01/27 11:31:46;;;;;;;5.35;3.30;;;7.90;99.90;;;;;;5013661;28;20203;-63
2024/01/27 11:34:16;;;;;;;8.50;3.17;;;7.90;99.90;;;;;;5006094;28;20235;-64
2024/01/27 11:36:43;;;;;;;5.53;2.80;;;8.00;99.90;;;;;;5011727;28;20245;-63
2024/01/27 11:39:25;;;;;;;8.48;5.30;;;8.00;99.90;;;;;;5003299;28;20204;-63
2024/01/27 11:41:52;;;;;;;7.15;3.40;;;8.10;99.90;;;;;;5013047;28;20274;-63
2024/01/27 11:44:21;;;;;;;12.68;3.38;;;8.10;99.90;;;;;;5014831;28;20258;-63
2024/01/27 11:46:48;;;;;;;4.03;2.70;;;8.20;99.90;;;;;;5009566;28;20227;-63
2024/01/27 11:49:17;;;;;;;5.47;3.03;;;8.30;99.90;;;;;;5011860;28;20512;-63
2024/01/27 11:51:44;;;;;;;4.35;3.22;;;8.50;99.90;;;;;;5013318;28;20470;-62
2024/01/27 11:54:11;;;;;;;8.90;2.80;;;8.50;99.90;;;;;;5006786;28;20290;-63
2024/01/27 11:56:38;;;;;;;6.85;2.78;;;8.50;99.90;;;;;;5009389;28;20536;-64
2024/01/27 11:59:04;;;;;;;3.85;2.65;;;8.50;99.90;;;;;;5014374;28;20307;-64
2024/01/27 12:01:33;;;;;;;7.40;3.20;;;8.60;99.90;;;;;;5013301;28;20204;-64
2024/01/27 12:04:00;;;;;;;6.53;2.70;;;8.60;99.90;;;;;;5013296;28;20493;-63
2024/01/27 12:06:27;;;;;;;5.63;3.53;;;8.80;99.90;;;;;;5012508;28;20461;-63
2024/01/27 12:08:57;;;;;;;7.50;3.27;;;8.90;99.90;;;;;;5034994;22;20582;-59
2024/01/27 12:11:25;;;;;;;6.27;2.80;;;8.80;99.90;;;;;;5012500;28;21329;-59
2024/01/27 12:13:52;;;;;;;4.83;2.93;;;8.90;99.90;;;;;;5012046;28;20443;-59
2024/01/27 12:16:19;;;;;;;6.20;3.20;;;9.00;99.90;;;;;;5013669;28;20482;-59
2024/01/27 12:18:48;;;;;;;4.70;3.97;;;9.10;99.90;;;;;;5014127;28;20470;-55
2024/01/27 12:21:19;;;;;;;7.43;3.67;;;9.20;99.90;;;;;;5011350;28;20451;-59
2024/01/27 12:23:53;;;;;;;3.33;3.03;;;9.40;99.90;;;;;;5010879;28;20492;-59
2024/01/27 12:26:22;;;;;;;9.40;5.60;;;9.60;99.90;;;;;;5013293;28;20548;-59
2024/01/27 12:28:49;;;;;;;4.43;2.77;;;9.90;99.90;;;;;;5013922;28;20462;-59
2024/01/27 12:31:17;;;;;;;10.83;2.90;;;10.10;99.90;;;;;;5013116;28;20454;-59
2024/01/27 12:33:51;;;;;;;7.47;2.63;;;10.40;99.90;;;;;;5012903;28;20453;-59
2024/01/27 12:36:19;;;;;;;7.13;3.10;;;10.70;99.90;;;;;;5007048;28;20500;-59
2024/01/27 12:38:48;;;;;;;16.60;3.87;;;10.90;99.90;;;;;;5013628;28;20505;-59
2024/01/27 12:41:15;;;;;;;9.20;3.70;;;11.00;99.90;;;;;;5013676;28;20528;-59
2024/01/27 12:43:42;;;;;;;6.97;2.77;;;11.10;99.90;;;;;;5013961;28;20898;-60
2024/01/27 12:46:10;;;;;;;5.00;2.23;;;11.40;99.90;;;;;;5013883;28;20537;-60
2024/01/27 12:48:38;;;;;;;4.63;3.20;;;11.80;99.90;;;;;;5014008;28;20902;-60
2024/01/27 12:51:07;;;;;;;12.80;3.80;;;;;;;;;;5013629;28;20562;-60
2024/01/27 12:53:34;;;;;;;8.77;3.87;;;12.70;99.90;;;;;;5011546;28;20446;-61
2024/01/27 12:56:01;;;;;;;4.20;2.67;;;13.10;99.90;;;;;;5013622;28;20528;-60